createdAt,value
2018-05-04T00:00:44.544Z,14.10
2018-05-04T00:03:12.903Z,14.10
2018-05-04T00:05:41.052Z,14.10
2018-05-04T00:08:09.945Z,14.10
2018-05-04T00:10:38.845Z,14.10
2018-05-04T00:13:07.741Z,14.10
2018-05-04T00:15:35.893Z,14.00
2018-05-04T00:18:04.788Z,14.00
2018-05-04T00:20:33.679Z,14.00
2018-05-04T00:23:02.584Z,13.90
2018-05-04T00:25:30.729Z,13.90
2018-05-04T00:27:58.877Z,13.80
2018-05-04T00:30:26.992Z,13.70
2018-05-04T00:32:55.136Z,13.90
2018-05-04T00:35:23.291Z,13.90
2018-05-04T00:37:51.415Z,13.80
2018-05-04T00:40:19.548Z,13.80
2018-05-04T00:42:47.693Z,13.90
2018-05-04T00:45:15.824Z,14.00
2018-05-04T00:47:43.988Z,14.00
2018-05-04T00:50:12.880Z,13.80
2018-05-04T00:52:41.809Z,13.80
2018-05-04T00:55:09.927Z,13.80
2018-05-04T00:57:38.853Z,13.70
2018-05-04T01:00:06.988Z,13.70
2018-05-04T01:02:35.892Z,13.60
2018-05-04T01:05:04.045Z,13.60
2018-05-04T01:07:32.193Z,13.50
2018-05-04T01:10:00.322Z,13.60
2018-05-04T01:12:28.461Z,13.50
2018-05-04T01:14:57.365Z,13.50
2018-05-04T01:17:26.272Z,13.50
2018-05-04T01:19:54.400Z,13.40
2018-05-04T01:22:22.548Z,13.50
2018-05-04T01:24:50.687Z,13.50
2018-05-04T01:27:18.829Z,13.50
2018-05-04T01:29:47.734Z,13.40
2018-05-04T01:32:16.611Z,13.30
2018-05-04T01:34:45.517Z,13.30
2018-05-04T01:37:13.640Z,13.30
2018-05-04T01:39:41.788Z,13.30
2018-05-04T01:42:09.904Z,13.20
2018-05-04T01:44:38.051Z,13.20
2018-05-04T01:47:06.173Z,13.20
2018-05-04T01:49:34.308Z,13.10
2018-05-04T01:52:02.444Z,13.20
2018-05-04T01:54:30.575Z,13.10
2018-05-04T01:56:59.460Z,13.20
2018-05-04T01:59:28.361Z,13.10
2018-05-04T02:01:57.326Z,13.10
2018-05-04T02:04:25.495Z,13.10
2018-05-04T02:06:53.589Z,13.00
2018-05-04T02:09:22.488Z,13.00
2018-05-04T02:11:50.605Z,13.00
2018-05-04T02:14:18.749Z,13.00
2018-05-04T02:16:46.866Z,12.90
2018-05-04T02:19:15.001Z,12.80
2018-05-04T02:21:43.148Z,12.80
2018-05-04T02:24:11.281Z,12.80
2018-05-04T02:26:39.414Z,12.80
2018-05-04T02:29:07.553Z,12.80
2018-05-04T02:31:36.516Z,12.70
2018-05-04T02:34:04.660Z,12.70
2018-05-04T02:36:32.782Z,12.70
2018-05-04T02:39:01.685Z,12.70
2018-05-04T02:41:29.805Z,12.70
2018-05-04T02:43:57.948Z,12.60
2018-05-04T02:46:26.088Z,12.60
2018-05-04T02:48:55.003Z,12.40
2018-05-04T02:51:23.125Z,12.50
2018-05-04T02:53:51.273Z,12.50
2018-05-04T02:56:19.405Z,12.40
2018-05-04T02:58:47.891Z,12.40
2018-05-04T03:01:16.018Z,12.40
2018-05-04T03:03:44.156Z,12.40
2018-05-04T03:06:12.292Z,12.30
2018-05-04T03:08:41.182Z,12.30
2018-05-04T03:11:10.079Z,12.20
2018-05-04T03:13:38.204Z,12.20
2018-05-04T03:16:06.349Z,12.20
2018-05-04T03:18:34.464Z,12.10
2018-05-04T03:21:02.611Z,12.20
2018-05-04T03:23:30.731Z,12.10
2018-05-04T03:25:58.881Z,12.10
2018-05-04T03:28:26.991Z,12.00
2018-05-04T03:30:55.133Z,11.90
2018-05-04T03:33:24.021Z,12.00
2018-05-04T03:35:52.924Z,12.10
2018-05-04T03:38:21.831Z,12.00
2018-05-04T03:40:49.960Z,12.00
2018-05-04T03:43:18.096Z,12.10
2018-05-04T03:45:46.241Z,12.20
2018-05-04T03:48:14.368Z,12.10
2018-05-04T03:50:42.549Z,12.10
2018-05-04T03:53:10.682Z,12.20
2018-05-04T03:55:38.820Z,12.20
2018-05-04T03:58:19.453Z,12.30
2018-05-04T04:00:59.294Z,12.30
2018-05-04T04:03:39.067Z,12.30
2018-05-04T04:06:07.977Z,12.20
2018-05-04T04:08:36.097Z,12.20
2018-05-04T04:11:04.252Z,12.30
2018-05-04T04:13:32.388Z,12.10
2018-05-04T04:16:00.509Z,12.30
2018-05-04T04:18:28.654Z,12.30
2018-05-04T04:20:56.879Z,12.40
2018-05-04T04:23:25.785Z,12.40
2018-05-04T04:25:53.919Z,12.40
2018-05-04T04:28:23.560Z,12.40
2018-05-04T04:30:51.717Z,12.40
2018-05-04T04:33:20.613Z,12.50
2018-05-04T04:35:48.736Z,12.50
2018-05-04T04:38:16.873Z,12.50
2018-05-04T04:40:44.995Z,12.50
2018-05-04T04:43:13.216Z,12.60
2018-05-04T04:45:41.410Z,12.70
2018-05-04T04:48:09.561Z,12.70
2018-05-04T04:50:37.688Z,12.70
2018-05-04T04:53:05.824Z,12.70
2018-05-04T04:55:33.945Z,12.70
2018-05-04T04:58:02.073Z,12.70
2018-05-04T05:00:30.223Z,12.80
2018-05-04T05:02:58.336Z,12.90
2018-05-04T05:05:26.485Z,13.00
2018-05-04T05:07:54.837Z,12.90
2018-05-04T05:10:23.055Z,13.10
2018-05-04T05:12:51.173Z,13.10
2018-05-04T05:15:20.091Z,13.20
2018-05-04T05:17:48.206Z,13.20
2018-05-04T05:20:16.451Z,13.10
2018-05-04T05:22:44.576Z,13.20
2018-05-04T05:25:13.488Z,13.60
2018-05-04T05:27:41.599Z,13.60
2018-05-04T05:30:09.860Z,13.90
2018-05-04T05:32:37.985Z,14.30
2018-05-04T05:35:06.130Z,14.60
2018-05-04T05:37:34.247Z,14.60
2018-05-04T05:40:02.399Z,14.70
2018-05-04T05:42:30.615Z,14.90
2018-05-04T05:44:58.653Z,14.80
2018-05-04T05:47:26.800Z,14.90
2018-05-04T05:49:54.917Z,15.10
2018-05-04T05:52:23.074Z,15.00
2018-05-04T05:54:51.196Z,15.30
2018-05-04T05:57:19.333Z,15.30
2018-05-04T05:59:47.462Z,15.40
2018-05-04T06:02:16.383Z,15.50
2018-05-04T06:04:44.509Z,15.50
2018-05-04T06:07:12.655Z,15.50
2018-05-04T06:09:40.760Z,15.50
2018-05-04T06:12:09.670Z,15.60
2018-05-04T06:14:37.863Z,15.60
2018-05-04T06:17:05.934Z,15.80
2018-05-04T06:19:34.049Z,15.90
2018-05-04T06:22:02.211Z,16.20
2018-05-04T06:24:30.330Z,16.40
2018-05-04T06:26:58.475Z,16.70
2018-05-04T06:29:27.381Z,16.80
2018-05-04T06:31:55.540Z,16.80
2018-05-04T06:34:24.476Z,16.80
2018-05-04T06:36:52.653Z,16.80
2018-05-04T06:39:20.780Z,17.10
2018-05-04T06:41:48.906Z,17.30
2018-05-04T06:44:17.054Z,17.20
2018-05-04T06:46:45.164Z,17.60
2018-05-04T06:49:13.304Z,17.90
2018-05-04T06:51:41.429Z,17.90
2018-05-04T06:54:10.334Z,18.20
2018-05-04T06:56:38.507Z,18.20
2018-05-04T06:59:06.636Z,18.10
2018-05-04T07:01:34.802Z,18.20
2018-05-04T07:04:02.917Z,18.00
2018-05-04T07:06:31.057Z,17.90
2018-05-04T07:08:59.224Z,18.10
2018-05-04T07:11:27.329Z,18.40
2018-05-04T07:13:55.480Z,18.60
2018-05-04T07:16:24.380Z,18.50
2018-05-04T07:18:53.292Z,18.50
2018-05-04T07:21:21.425Z,18.50
2018-05-04T07:23:49.558Z,19.00
2018-05-04T07:26:17.704Z,19.00
2018-05-04T07:28:45.902Z,19.30
2018-05-04T07:31:15.516Z,19.20
2018-05-04T07:33:43.654Z,19.20
2018-05-04T07:36:11.806Z,19.40
2018-05-04T07:38:40.105Z,19.10
2018-05-04T07:41:08.269Z,19.40
2018-05-04T07:43:36.396Z,19.60
2018-05-04T07:46:04.545Z,19.70
2018-05-04T07:48:32.668Z,19.80
2018-05-04T07:51:00.820Z,20.10
2018-05-04T07:53:29.058Z,20.20
2018-05-04T07:55:57.311Z,20.50
2018-05-04T07:58:25.441Z,20.70
2018-05-04T08:00:53.585Z,20.50
2018-05-04T08:03:21.711Z,20.70
2018-05-04T08:05:49.860Z,20.80
2018-05-04T08:08:18.756Z,21.30
2018-05-04T08:10:47.666Z,21.70
2018-05-04T08:13:15.798Z,21.70
2018-05-04T08:15:43.965Z,21.80
2018-05-04T08:18:12.076Z,22.10
2018-05-04T08:20:40.217Z,22.00
2018-05-04T08:23:08.352Z,22.60
2018-05-04T08:25:36.489Z,22.90
2018-05-04T08:28:04.658Z,23.20
2018-05-04T08:30:33.537Z,23.30
2018-05-04T08:33:02.448Z,23.20
2018-05-04T08:35:30.629Z,23.20
2018-05-04T08:37:58.720Z,24.00
2018-05-04T08:40:26.881Z,23.70
2018-05-04T08:42:55.079Z,24.20
2018-05-04T08:45:23.157Z,24.50
2018-05-04T08:47:51.312Z,24.40
2018-05-04T08:50:19.442Z,24.60
2018-05-04T08:52:47.597Z,24.60
2018-05-04T08:55:15.893Z,24.60
2018-05-04T08:57:44.034Z,24.60
2018-05-04T09:00:12.933Z,24.60
2018-05-04T09:02:41.849Z,25.10
2018-05-04T09:05:10.054Z,25.10
2018-05-04T09:07:38.315Z,24.60
2018-05-04T09:10:06.271Z,24.00
2018-05-04T09:12:34.651Z,23.70
2018-05-04T09:15:02.810Z,23.50
2018-05-04T09:17:30.938Z,23.60
2018-05-04T09:20:00.600Z,24.10
2018-05-04T09:22:28.796Z,24.10
2018-05-04T09:24:57.146Z,24.80
2018-05-04T09:27:25.256Z,24.20
2018-05-04T09:29:53.590Z,23.70
2018-05-04T09:32:21.708Z,23.10
2018-05-04T09:34:49.852Z,22.90
2018-05-04T09:37:18.009Z,22.90
2018-05-04T09:39:46.149Z,23.30
2018-05-04T09:42:15.054Z,22.60
2018-05-04T09:44:43.199Z,22.60
2018-05-04T09:47:12.087Z,24.50
2018-05-04T09:49:40.236Z,24.50
2018-05-04T09:52:08.362Z,24.80
2018-05-04T09:54:36.488Z,23.70
2018-05-04T09:57:04.632Z,23.80
2018-05-04T09:59:32.793Z,24.90
2018-05-04T10:02:00.929Z,24.80
2018-05-04T10:04:29.816Z,24.80
2018-05-04T10:06:58.737Z,25.50
2018-05-04T10:09:26.868Z,25.50
2018-05-04T10:11:55.768Z,26.40
2018-05-04T10:14:24.656Z,25.50
2018-05-04T10:16:53.583Z,25.20
2018-05-04T10:19:21.688Z,25.20
2018-05-04T10:21:49.854Z,25.30
2018-05-04T10:24:17.970Z,25.70
2018-05-04T10:26:46.110Z,25.60
2018-05-04T10:29:14.236Z,26.10
2018-05-04T10:31:42.381Z,25.70
2018-05-04T10:34:10.530Z,25.10
2018-05-04T10:36:38.692Z,24.40
2018-05-04T10:39:06.825Z,23.80
2018-05-04T10:41:34.949Z,23.70
2018-05-04T10:44:03.869Z,25.60
2018-05-04T10:46:32.365Z,25.50
2018-05-04T10:49:00.496Z,25.70
2018-05-04T10:51:29.381Z,26.20
2018-05-04T10:53:58.290Z,25.60
2018-05-04T10:56:26.408Z,25.60
2018-05-04T10:58:54.571Z,25.50
2018-05-04T11:01:22.733Z,25.80
2018-05-04T11:03:50.864Z,25.30
2018-05-04T11:06:19.780Z,23.60
2018-05-04T11:08:47.924Z,23.60
2018-05-04T11:11:16.856Z,24.60
2018-05-04T11:13:44.991Z,24.60
2018-05-04T11:16:13.896Z,25.40
2018-05-04T11:18:42.024Z,25.30
2018-05-04T11:21:10.150Z,25.90
2018-05-04T11:23:38.284Z,26.40
2018-05-04T11:26:07.174Z,26.60
2018-05-04T11:28:36.456Z,27.00
2018-05-04T11:31:04.584Z,26.90
2018-05-04T11:33:32.716Z,26.60
2018-05-04T11:36:01.637Z,27.00
2018-05-04T11:38:29.772Z,27.00
2018-05-04T11:40:58.676Z,27.50
2018-05-04T11:43:27.173Z,27.50
2018-05-04T11:45:55.305Z,27.60
2018-05-04T11:48:23.444Z,27.70
2018-05-04T11:50:51.581Z,26.90
2018-05-04T11:53:19.720Z,26.70
2018-05-04T11:55:48.635Z,27.20
2018-05-04T11:58:17.537Z,27.00
2018-05-04T12:00:45.676Z,27.00
2018-05-04T12:03:14.577Z,26.00
2018-05-04T12:05:43.480Z,26.40
2018-05-04T12:08:11.625Z,26.30
2018-05-04T12:10:39.760Z,26.70
2018-05-04T12:13:07.880Z,26.60
2018-05-04T12:15:36.785Z,26.10
2018-05-04T12:18:04.921Z,26.10
2018-05-04T12:20:33.057Z,26.10
2018-05-04T12:23:01.217Z,25.80
2018-05-04T12:25:29.337Z,26.40
2018-05-04T12:27:57.513Z,26.50
2018-05-04T12:30:25.656Z,27.40
2018-05-04T12:32:53.784Z,27.00
2018-05-04T12:35:21.917Z,26.30
2018-05-04T12:37:50.128Z,26.00
2018-05-04T12:40:18.306Z,26.50
2018-05-04T12:42:46.453Z,25.80
2018-05-04T12:45:15.353Z,25.90
2018-05-04T12:47:43.680Z,25.90
2018-05-04T12:50:11.807Z,25.70
2018-05-04T12:52:39.944Z,25.60
2018-05-04T12:55:08.077Z,26.00
2018-05-04T12:57:36.220Z,26.40
2018-05-04T13:00:05.213Z,26.80
2018-05-04T13:02:34.257Z,26.70
2018-05-04T13:05:02.385Z,26.40
2018-05-04T13:07:30.504Z,26.00
2018-05-04T13:09:58.644Z,26.20
2018-05-04T13:12:26.774Z,25.60
2018-05-04T13:14:56.021Z,24.60
2018-05-04T13:17:24.152Z,24.60
2018-05-04T13:19:53.032Z,24.70
2018-05-04T13:22:21.919Z,26.10
2018-05-04T13:24:50.812Z,25.60
2018-05-04T13:27:18.944Z,25.60
2018-05-04T13:29:47.085Z,24.60
2018-05-04T13:32:15.210Z,24.70
2018-05-04T13:34:44.112Z,25.40
2018-05-04T13:37:12.991Z,25.60
2018-05-04T13:39:41.895Z,25.40
2018-05-04T13:42:10.774Z,25.50
2018-05-04T13:44:39.718Z,25.10
2018-05-04T13:47:07.803Z,25.10
2018-05-04T13:49:36.713Z,24.50
2018-05-04T13:52:04.829Z,24.50
2018-05-04T13:54:32.976Z,24.40
2018-05-04T13:57:01.097Z,24.30
2018-05-04T13:59:29.257Z,24.50
2018-05-04T14:01:57.396Z,24.40
2018-05-04T14:04:25.512Z,23.90
2018-05-04T14:06:53.669Z,23.60
2018-05-04T14:09:21.788Z,23.60
2018-05-04T14:11:50.701Z,23.70
2018-05-04T14:14:18.840Z,23.70
2018-05-04T14:16:46.972Z,23.30
2018-05-04T14:19:15.093Z,23.30
2018-05-04T14:21:43.992Z,23.50
2018-05-04T14:24:12.877Z,23.70
2018-05-04T14:26:41.780Z,23.70
2018-05-04T14:29:09.905Z,23.60
2018-05-04T14:31:38.044Z,23.40
2018-05-04T14:34:06.161Z,23.30
2018-05-04T14:36:34.292Z,23.00
2018-05-04T14:39:02.420Z,23.10
2018-05-04T14:41:31.333Z,23.00
2018-05-04T14:43:59.457Z,23.00
2018-05-04T14:46:27.604Z,23.10
2018-05-04T14:48:55.860Z,23.10
2018-05-04T14:51:24.129Z,23.00
2018-05-04T14:53:52.212Z,22.90
2018-05-04T14:56:20.336Z,22.90
2018-05-04T14:58:48.485Z,22.80
2018-05-04T15:01:16.607Z,22.80
2018-05-04T15:03:44.753Z,22.80
2018-05-04T15:06:12.877Z,22.80
2018-05-04T15:08:41.016Z,22.90
2018-05-04T15:11:09.289Z,22.90
2018-05-04T15:13:37.561Z,22.70
2018-05-04T15:16:05.743Z,22.90
2018-05-04T15:18:33.818Z,23.00
2018-05-04T15:21:01.953Z,23.10
2018-05-04T15:23:30.859Z,22.70
2018-05-04T15:25:58.978Z,22.70
2018-05-04T15:28:27.119Z,22.60
2018-05-04T15:30:55.233Z,22.50
2018-05-04T15:33:23.374Z,22.40
2018-05-04T15:35:51.488Z,22.20
2018-05-04T15:38:19.626Z,22.20
2018-05-04T15:40:47.756Z,22.00
2018-05-04T15:43:15.895Z,21.80
2018-05-04T15:45:44.009Z,21.70
2018-05-04T15:48:17.821Z,21.60
2018-05-04T15:50:51.484Z,21.50
2018-05-04T15:53:20.395Z,21.20
2018-05-04T15:55:48.876Z,21.20
2018-05-04T15:58:17.757Z,21.10
2018-05-04T16:00:46.669Z,21.00
2018-05-04T16:03:14.803Z,20.90
2018-05-04T16:05:43.712Z,21.10
2018-05-04T16:08:11.848Z,21.00
2018-05-04T16:10:39.988Z,20.90
2018-05-04T16:13:08.116Z,21.00
2018-05-04T16:15:37.020Z,20.90
2018-05-04T16:18:05.144Z,20.90
2018-05-04T16:20:33.281Z,20.80
2018-05-04T16:23:01.419Z,20.80
2018-05-04T16:25:30.318Z,20.70
2018-05-04T16:27:58.458Z,20.70
2018-05-04T16:30:26.601Z,20.80
2018-05-04T16:32:54.725Z,20.70
2018-05-04T16:35:23.631Z,20.40
2018-05-04T16:37:51.748Z,20.40
2018-05-04T16:40:19.896Z,20.40
2018-05-04T16:42:48.025Z,20.40
2018-05-04T16:45:16.942Z,20.10
2018-05-04T16:47:50.750Z,20.10
2018-05-04T16:50:18.888Z,19.90
2018-05-04T16:52:47.004Z,19.90
2018-05-04T16:55:15.132Z,19.70
2018-05-04T16:57:43.271Z,19.70
2018-05-04T17:00:11.387Z,19.80
2018-05-04T17:02:39.543Z,19.70
2018-05-04T17:05:07.669Z,19.60
2018-05-04T17:07:35.924Z,19.30
2018-05-04T17:10:04.040Z,19.30
2018-05-04T17:12:32.285Z,19.30
2018-05-04T17:15:00.415Z,19.20
2018-05-04T17:17:29.316Z,19.30
2018-05-04T17:19:57.443Z,19.20
2018-05-04T17:22:25.583Z,19.00
2018-05-04T17:24:53.703Z,19.10
2018-05-04T17:27:21.864Z,19.20
2018-05-04T17:29:50.100Z,19.00
2018-05-04T17:32:18.234Z,19.00
2018-05-04T17:34:46.357Z,19.00
2018-05-04T17:37:14.520Z,19.10
2018-05-04T17:39:42.649Z,19.10
2018-05-04T17:42:10.772Z,18.90
2018-05-04T17:44:39.248Z,18.70
2018-05-04T17:47:07.484Z,18.80
2018-05-04T17:49:35.765Z,18.70
2018-05-04T17:52:03.894Z,18.70
2018-05-04T17:54:32.100Z,18.50
2018-05-04T17:57:00.226Z,18.40
2018-05-04T17:59:28.449Z,18.20
2018-05-04T18:01:56.563Z,18.20
2018-05-04T18:04:24.718Z,18.10
2018-05-04T18:06:52.824Z,17.90
2018-05-04T18:09:20.969Z,17.90
2018-05-04T18:11:49.120Z,17.80
2018-05-04T18:14:17.256Z,17.70
2018-05-04T18:16:45.381Z,17.70
2018-05-04T18:19:13.542Z,17.60
2018-05-04T18:21:41.757Z,17.60
2018-05-04T18:24:09.964Z,17.40
2018-05-04T18:26:38.103Z,17.40
2018-05-04T18:29:06.316Z,17.30
2018-05-04T18:31:34.460Z,17.20
2018-05-04T18:34:03.345Z,17.00
2018-05-04T18:36:32.286Z,17.00
2018-05-04T18:39:00.426Z,17.00
2018-05-04T18:41:28.598Z,16.90
2018-05-04T18:43:57.582Z,16.80
2018-05-04T18:46:26.513Z,16.80
2018-05-04T18:48:54.671Z,16.80
2018-05-04T18:51:22.836Z,16.80
2018-05-04T18:53:50.956Z,16.80
2018-05-04T18:56:19.097Z,16.60
2018-05-04T18:58:48.004Z,16.40
2018-05-04T19:01:16.155Z,16.40
2018-05-04T19:03:44.287Z,16.40
2018-05-04T19:06:13.173Z,16.30
2018-05-04T19:08:42.053Z,16.30
2018-05-04T19:11:10.999Z,16.30
2018-05-04T19:13:39.192Z,16.30
2018-05-04T19:16:07.926Z,16.20
2018-05-04T19:18:36.072Z,16.20
2018-05-04T19:21:04.976Z,16.10
2018-05-04T19:23:33.173Z,16.10
2018-05-04T19:26:01.339Z,16.00
2018-05-04T19:28:29.472Z,16.10
2018-05-04T19:30:57.706Z,15.90
2018-05-04T19:33:25.855Z,16.00
2018-05-04T19:35:54.006Z,15.80
2018-05-04T19:38:22.913Z,15.70
2018-05-04T19:40:51.142Z,15.70
2018-05-04T19:43:19.294Z,15.70
2018-05-04T19:45:47.446Z,15.70
2018-05-04T19:48:15.575Z,15.70
2018-05-04T19:50:44.508Z,15.70
2018-05-04T19:53:12.640Z,15.70
2018-05-04T19:55:40.887Z,15.60
2018-05-04T19:58:09.122Z,15.50
2018-05-04T20:00:37.389Z,15.50
2018-05-04T20:03:05.571Z,15.30
2018-05-04T20:05:33.705Z,15.30
2018-05-04T20:08:02.616Z,15.50
2018-05-04T20:10:30.773Z,15.40
2018-05-04T20:12:58.896Z,15.30
2018-05-04T20:15:27.028Z,15.40
2018-05-04T20:17:55.202Z,15.40
2018-05-04T20:20:23.341Z,15.40
2018-05-04T20:22:52.233Z,15.20
2018-05-04T20:25:20.357Z,15.20
2018-05-04T20:27:48.504Z,15.20
2018-05-04T20:30:16.642Z,15.20
2018-05-04T20:32:45.532Z,15.10
2018-05-04T20:35:14.437Z,15.20
2018-05-04T20:37:43.386Z,15.20
2018-05-04T20:40:12.227Z,15.10
2018-05-04T20:42:40.353Z,15.10
2018-05-04T20:45:08.505Z,15.00
2018-05-04T20:47:36.629Z,15.00
2018-05-04T20:50:05.544Z,15.00
2018-05-04T20:52:33.670Z,14.90
2018-05-04T20:55:01.810Z,14.90
2018-05-04T20:57:29.952Z,14.90
2018-05-04T20:59:58.449Z,14.90
2018-05-04T21:02:26.593Z,14.80
2018-05-04T21:04:54.753Z,14.70
2018-05-04T21:07:23.665Z,14.60
2018-05-04T21:09:51.784Z,14.60
2018-05-04T21:12:19.933Z,14.60
2018-05-04T21:14:48.070Z,14.60
2018-05-04T21:17:16.212Z,14.60
2018-05-04T21:19:44.693Z,14.60
2018-05-04T21:22:12.827Z,14.50
2018-05-04T21:24:40.944Z,14.50
2018-05-04T21:27:09.923Z,14.40
2018-05-04T21:29:37.982Z,14.40
2018-05-04T21:32:06.165Z,14.40
2018-05-04T21:34:34.306Z,14.40
2018-05-04T21:37:02.478Z,14.30
2018-05-04T21:39:30.622Z,14.30
2018-05-04T21:41:58.748Z,14.30
2018-05-04T21:44:26.896Z,14.20
2018-05-04T21:46:55.013Z,14.20
2018-05-04T21:49:23.924Z,14.10
2018-05-04T21:51:52.091Z,14.10
2018-05-04T21:54:20.236Z,14.10
2018-05-04T21:56:48.418Z,14.10
2018-05-04T21:59:17.320Z,13.90
2018-05-04T22:01:45.548Z,13.90
2018-05-04T22:04:13.688Z,13.90
2018-05-04T22:06:41.870Z,13.90
2018-05-04T22:09:10.058Z,14.00
2018-05-04T22:11:38.184Z,13.90
2018-05-04T22:14:06.348Z,13.90
2018-05-04T22:16:35.240Z,13.80
2018-05-04T22:19:03.431Z,13.80
2018-05-04T22:21:31.647Z,13.80
2018-05-04T22:23:59.821Z,13.70
2018-05-04T22:26:27.996Z,13.80
2018-05-04T22:28:56.104Z,13.70
2018-05-04T22:31:24.253Z,13.70
2018-05-04T22:33:52.385Z,13.60
2018-05-04T22:36:20.564Z,13.50
2018-05-04T22:38:48.690Z,13.50
2018-05-04T22:41:16.833Z,13.30
2018-05-04T22:43:45.046Z,13.40
2018-05-04T22:46:13.189Z,13.40
2018-05-04T22:48:42.080Z,13.20
2018-05-04T22:51:10.999Z,13.20
2018-05-04T22:53:39.124Z,13.10
2018-05-04T22:56:07.343Z,13.30
2018-05-04T22:58:35.465Z,13.30
2018-05-04T23:01:03.605Z,13.30
2018-05-04T23:03:31.728Z,13.40
2018-05-04T23:06:00.641Z,13.40
2018-05-04T23:08:28.768Z,13.30
2018-05-04T23:10:56.920Z,13.40
2018-05-04T23:13:25.043Z,13.20
2018-05-04T23:15:53.197Z,13.30
2018-05-04T23:18:21.416Z,13.30
2018-05-04T23:20:49.561Z,13.20
2018-05-04T23:23:17.685Z,13.30
2018-05-04T23:25:45.916Z,13.30
2018-05-04T23:28:14.060Z,13.30
2018-05-04T23:30:42.337Z,13.30
2018-05-04T23:33:10.463Z,13.20
2018-05-04T23:35:38.619Z,13.20
2018-05-04T23:38:06.784Z,13.20
2018-05-04T23:40:34.927Z,13.10
2018-05-04T23:43:03.840Z,13.20
2018-05-04T23:45:31.989Z,13.10
2018-05-04T23:48:00.899Z,13.10
2018-05-04T23:50:29.034Z,13.10
2018-05-04T23:52:57.183Z,13.00
2018-05-04T23:55:25.446Z,12.90
2018-05-04T23:57:53.589Z,12.90
